createdAt,value
2023-01-19T00:01:52.769Z,2.97
2023-01-19T00:06:56.882Z,3.40
2023-01-19T00:12:01.176Z,3.30
2023-01-19T00:17:04.832Z,3.28
2023-01-19T00:22:08.080Z,3.08
2023-01-19T00:27:12.281Z,3.30
2023-01-19T00:32:18.296Z,3.17
2023-01-19T00:37:22.167Z,2.92
2023-01-19T00:42:40.905Z,2.90
2023-01-19T00:47:44.578Z,2.38
2023-01-19T00:52:48.216Z,2.05
2023-01-19T00:57:51.220Z,2.28
2023-01-19T01:02:54.806Z,2.13
2023-01-19T01:07:57.713Z,3.10
2023-01-19T01:13:00.365Z,2.90
2023-01-19T01:18:23.838Z,3.13
2023-01-19T01:23:26.516Z,2.58
2023-01-19T01:28:29.025Z,2.60
2023-01-19T01:33:39.884Z,2.28
2023-01-19T01:38:45.433Z,2.10
2023-01-19T01:43:58.602Z,1.65
2023-01-19T01:49:10.968Z,1.60
2023-01-19T01:54:24.417Z,1.08
2023-01-19T01:59:39.974Z,1.13
2023-01-19T02:05:04.275Z,1.38
2023-01-19T02:10:26.147Z,1.05
2023-01-19T02:15:28.835Z,1.70
2023-01-19T02:20:33.898Z,1.23
2023-01-19T02:25:36.987Z,1.48
2023-01-19T02:30:41.760Z,1.50
2023-01-19T02:35:46.199Z,1.92
2023-01-19T02:40:49.788Z,1.40
2023-01-19T02:45:52.727Z,1.05
2023-01-19T02:51:04.671Z,1.38
2023-01-19T02:56:07.347Z,0.90
2023-01-19T03:01:48.659Z,1.13
2023-01-19T03:07:01.214Z,0.85
2023-01-19T03:12:34.453Z,1.00
2023-01-19T03:17:38.585Z,1.20
2023-01-19T03:22:42.429Z,3.03
2023-01-19T03:27:46.787Z,1.73
2023-01-19T03:33:00.079Z,1.00
2023-01-19T03:38:08.739Z,1.00
2023-01-19T03:43:12.399Z,0.70
2023-01-19T03:48:15.224Z,1.25
2023-01-19T03:53:20.237Z,0.82
2023-01-19T04:03:25.243Z,0.75
2023-01-19T04:08:28.019Z,0.80
2023-01-19T04:13:30.835Z,0.60
2023-01-19T04:18:36.282Z,0.77
2023-01-19T04:23:39.832Z,0.55
2023-01-19T04:28:43.481Z,0.60
2023-01-19T04:33:49.882Z,0.60
2023-01-19T04:38:53.002Z,0.70
2023-01-19T04:44:15.800Z,0.90
2023-01-19T04:49:18.382Z,0.35
2023-01-19T04:54:21.595Z,0.65
2023-01-19T04:59:24.286Z,0.85
2023-01-19T05:04:26.896Z,0.77
2023-01-19T05:09:29.463Z,1.13
2023-01-19T05:14:32.209Z,2.17
2023-01-19T05:19:35.526Z,1.60
2023-01-19T05:24:39.152Z,1.50
2023-01-19T05:29:42.089Z,1.30
2023-01-19T05:34:45.244Z,1.90
2023-01-19T05:39:48.842Z,2.10
2023-01-19T05:44:51.554Z,2.00
2023-01-19T05:49:54.494Z,1.80
2023-01-19T05:54:57.041Z,1.48
2023-01-19T06:00:00.677Z,1.70
2023-01-19T06:05:04.630Z,1.73
2023-01-19T06:10:08.630Z,1.73
2023-01-19T06:15:11.958Z,1.63
2023-01-19T06:20:15.467Z,2.25
2023-01-19T06:25:18.821Z,2.10
2023-01-19T06:30:23.246Z,3.35
2023-01-19T06:35:25.832Z,1.50
2023-01-19T06:40:28.382Z,1.52
2023-01-19T06:45:31.014Z,1.98
2023-01-19T06:50:33.699Z,1.50
2023-01-19T06:55:36.516Z,1.60
2023-01-19T07:00:39.531Z,1.70
2023-01-19T07:05:42.233Z,2.38
2023-01-19T07:11:25.618Z,2.58
2023-01-19T07:16:13.004Z,2.15
2023-01-19T07:21:18.092Z,2.65
2023-01-19T07:26:21.856Z,2.35
2023-01-19T07:31:25.157Z,2.60
2023-01-19T07:36:27.793Z,2.83
2023-01-19T07:41:30.289Z,3.05
2023-01-19T07:47:11.281Z,2.70
2023-01-19T07:52:14.058Z,4.07
2023-01-19T07:57:17.205Z,4.18
2023-01-19T08:02:19.853Z,4.47
2023-01-19T08:07:22.615Z,4.75
2023-01-19T08:12:25.193Z,4.95
2023-01-19T08:17:27.937Z,5.20
2023-01-19T08:22:30.526Z,4.82
2023-01-19T08:27:33.041Z,4.60
2023-01-19T08:32:36.012Z,4.88
2023-01-19T08:37:38.464Z,5.22
2023-01-19T08:42:40.986Z,5.20
2023-01-19T08:47:43.551Z,7.45
2023-01-19T08:52:46.135Z,5.78
2023-01-19T08:57:53.348Z,5.38
2023-01-19T09:02:56.640Z,5.47
2023-01-19T09:07:59.372Z,5.13
2023-01-19T09:13:08.356Z,5.15
2023-01-19T09:18:18.773Z,5.28
2023-01-19T09:23:22.764Z,6.32
2023-01-19T09:28:25.674Z,5.57
2023-01-19T09:33:29.435Z,4.97
2023-01-19T09:38:32.981Z,5.72
2023-01-19T09:43:41.037Z,8.57
2023-01-19T09:48:54.291Z,5.45
2023-01-19T09:54:17.857Z,5.63
2023-01-19T09:59:26.226Z,5.47
2023-01-19T10:04:42.527Z,4.55
2023-01-19T10:10:03.056Z,5.20
2023-01-19T10:15:42.856Z,5.68
2023-01-19T10:20:56.694Z,5.22
2023-01-19T10:26:05.747Z,5.40
2023-01-19T10:31:09.844Z,5.55
2023-01-19T10:36:24.508Z,5.50
2023-01-19T10:41:40.954Z,5.38
2023-01-19T10:46:45.986Z,5.03
2023-01-19T10:57:03.877Z,3.75
2023-01-19T11:02:30.034Z,3.55
2023-01-19T11:07:34.688Z,3.55
2023-01-19T11:12:45.747Z,4.53
2023-01-19T11:17:49.211Z,4.20
2023-01-19T11:23:21.915Z,3.83
2023-01-19T11:28:32.948Z,4.85
2023-01-19T11:33:57.484Z,3.30
2023-01-19T11:39:28.817Z,4.43
2023-01-19T11:45:28.497Z,2.05
2023-01-19T11:51:39.407Z,4.80
2023-01-19T11:58:29.254Z,2.70
2023-01-19T12:04:30.857Z,2.88
2023-01-19T12:17:36.794Z,4.75
2023-01-19T12:22:50.970Z,3.97
2023-01-19T12:27:54.614Z,5.00
2023-01-19T12:33:29.179Z,5.95
2023-01-19T12:38:57.840Z,4.80
2023-01-19T12:44:16.633Z,6.82
2023-01-19T12:49:29.708Z,4.00
2023-01-19T12:54:33.592Z,3.88
2023-01-19T13:11:34.103Z,3.30
2023-01-19T13:16:37.126Z,2.72
2023-01-19T13:21:57.018Z,2.63
2023-01-19T13:27:03.536Z,3.50
2023-01-19T13:32:35.911Z,2.13
2023-01-19T13:38:28.506Z,3.10
2023-01-19T13:43:37.515Z,2.63
2023-01-19T13:48:40.370Z,4.50
2023-01-19T13:54:32.639Z,5.85
2023-01-19T13:59:35.312Z,4.00
2023-01-19T14:04:38.122Z,3.60
2023-01-19T14:09:41.265Z,2.58
2023-01-19T14:14:46.973Z,3.45
2023-01-19T14:20:30.479Z,3.58
2023-01-19T14:26:43.444Z,3.67
2023-01-19T14:32:07.048Z,2.58
2023-01-19T14:37:31.452Z,2.90
2023-01-19T14:42:43.062Z,14.18
2023-01-19T14:47:53.493Z,5.38
2023-01-19T14:53:04.084Z,3.78
2023-01-19T14:58:17.165Z,3.45
2023-01-19T15:03:19.808Z,3.20
2023-01-19T15:08:34.317Z,4.43
2023-01-19T15:13:37.319Z,5.20
2023-01-19T15:18:40.758Z,10.25
2023-01-19T15:23:43.517Z,6.60
2023-01-19T15:28:47.195Z,3.53
2023-01-19T15:33:54.637Z,3.15
2023-01-19T15:38:57.730Z,2.67
2023-01-19T15:44:01.428Z,3.15
2023-01-19T15:49:07.035Z,3.97
2023-01-19T15:54:23.186Z,3.53
2023-01-19T15:59:33.620Z,3.33
2023-01-19T16:04:36.202Z,4.70
2023-01-19T16:09:38.816Z,4.97
2023-01-19T16:14:41.396Z,5.25
2023-01-19T16:19:43.946Z,4.20
2023-01-19T16:24:46.502Z,3.72
2023-01-19T16:29:52.349Z,3.97
2023-01-19T16:34:55.555Z,4.68
2023-01-19T16:40:00.746Z,3.30
2023-01-19T16:50:08.620Z,5.07
2023-01-19T16:55:12.001Z,5.35
2023-01-19T17:00:15.927Z,5.70
2023-01-19T17:05:24.471Z,7.20
2023-01-19T17:10:32.472Z,7.32
2023-01-19T17:15:35.276Z,5.05
2023-01-19T17:20:38.173Z,6.10
2023-01-19T17:25:40.805Z,8.55
2023-01-19T17:30:43.466Z,5.82
2023-01-19T17:35:47.047Z,4.85
2023-01-19T17:40:52.730Z,7.05
2023-01-19T17:46:06.144Z,5.63
2023-01-19T17:51:12.048Z,4.75
2023-01-19T17:56:25.966Z,4.03
2023-01-19T18:01:33.372Z,3.22
2023-01-19T18:06:36.536Z,3.55
2023-01-19T18:11:39.178Z,4.75
2023-01-19T18:16:41.730Z,9.00
2023-01-19T18:21:44.324Z,13.40
2023-01-19T18:26:46.945Z,15.15
2023-01-19T18:31:49.681Z,12.45
2023-01-19T18:36:53.692Z,9.70
2023-01-19T18:41:56.868Z,7.82
2023-01-19T18:46:59.800Z,5.53
2023-01-19T18:52:03.991Z,4.82
2023-01-19T18:57:06.561Z,6.00
2023-01-19T19:02:11.948Z,5.47
2023-01-19T19:07:17.720Z,6.40
2023-01-19T19:12:22.643Z,7.40
2023-01-19T19:17:25.396Z,4.97
2023-01-19T19:22:28.316Z,3.75
2023-01-19T19:27:30.989Z,3.45
2023-01-19T19:32:33.628Z,4.60
2023-01-19T19:37:36.285Z,4.28
2023-01-19T19:42:39.410Z,4.38
2023-01-19T19:47:43.903Z,4.10
2023-01-19T19:52:46.726Z,4.20
2023-01-19T19:57:49.313Z,5.57
2023-01-19T20:02:51.988Z,4.55
2023-01-19T20:07:54.703Z,4.18
2023-01-19T20:12:57.421Z,3.40
2023-01-19T20:18:00.074Z,3.55
2023-01-19T20:23:02.794Z,3.28
2023-01-19T20:28:05.690Z,3.22
2023-01-19T20:33:08.303Z,2.08
2023-01-19T20:38:11.106Z,1.85
2023-01-19T20:43:13.964Z,2.40
2023-01-19T20:48:16.988Z,2.40
2023-01-19T20:53:19.818Z,3.30
2023-01-19T20:58:24.621Z,3.22
2023-01-19T21:03:29.644Z,3.90
2023-01-19T21:08:33.143Z,6.05
2023-01-19T21:13:36.555Z,3.88
2023-01-19T21:18:39.273Z,3.40
2023-01-19T21:23:42.187Z,4.63
2023-01-19T21:28:47.264Z,9.38
2023-01-19T21:39:00.637Z,8.73
2023-01-19T21:44:04.519Z,6.90
2023-01-19T21:49:12.711Z,4.55
2023-01-19T21:54:15.355Z,4.13
2023-01-19T21:59:20.213Z,3.95
2023-01-19T22:09:25.739Z,3.42
2023-01-19T22:14:30.033Z,3.58
2023-01-19T22:19:33.242Z,4.43
2023-01-19T22:24:35.894Z,3.75
2023-01-19T22:29:38.539Z,5.28
2023-01-19T22:34:43.197Z,5.40
2023-01-19T22:39:48.121Z,2.75
2023-01-19T22:44:51.105Z,1.88
2023-01-19T22:49:56.931Z,1.77
2023-01-19T22:55:00.184Z,1.80
2023-01-19T23:00:08.716Z,2.20
2023-01-19T23:05:11.441Z,2.00
2023-01-19T23:10:14.277Z,2.35
2023-01-19T23:15:16.976Z,2.72
2023-01-19T23:20:21.103Z,2.53
2023-01-19T23:25:23.808Z,2.23
2023-01-19T23:30:29.240Z,3.00
2023-01-19T23:35:34.648Z,2.58
2023-01-19T23:40:38.467Z,2.80
2023-01-19T23:45:41.428Z,2.60
2023-01-19T23:51:05.640Z,2.50
2023-01-19T23:56:22.960Z,2.85
